createdAt,value
2019-03-08T00:02:19.009Z,97472.48
2019-03-08T00:04:49.783Z,97499.06
2019-03-08T00:07:20.280Z,97494.21
2019-03-08T00:09:51.197Z,97496.09
2019-03-08T00:12:21.673Z,97512.36
2019-03-08T00:14:52.805Z,97506.94
2019-03-08T00:17:23.545Z,97510.19
2019-03-08T00:19:54.169Z,97520.50
2019-03-08T00:22:24.698Z,97509.91
2019-03-08T00:24:56.996Z,97508.02
2019-03-08T00:27:27.679Z,97534.58
2019-03-08T00:29:59.904Z,97518.03
2019-03-08T00:32:30.661Z,97516.95
2019-03-08T00:35:01.322Z,97522.38
2019-03-08T00:37:31.823Z,97544.05
2019-03-08T00:40:02.947Z,97536.71
2019-03-08T00:42:33.681Z,97545.13
2019-03-08T00:45:04.483Z,97548.36
2019-03-08T00:47:36.831Z,97564.60
2019-03-08T00:50:07.752Z,97574.63
2019-03-08T00:52:38.571Z,97569.19
2019-03-08T00:55:09.173Z,97568.30
2019-03-08T00:57:42.693Z,97562.84
2019-03-08T01:00:16.725Z,97558.70
2019-03-08T01:02:47.536Z,97565.11
2019-03-08T01:05:18.735Z,97570.77
2019-03-08T01:07:49.188Z,97587.22
2019-03-08T01:10:21.311Z,97587.66
2019-03-08T01:12:51.795Z,97585.20
2019-03-08T01:15:22.280Z,97601.41
2019-03-08T01:17:52.938Z,97594.05
2019-03-08T01:20:23.693Z,97582.69
2019-03-08T01:22:54.370Z,97584.55
2019-03-08T01:25:25.242Z,97589.62
2019-03-08T01:28:10.364Z,97578.78
2019-03-08T01:30:41.293Z,97588.47
2019-03-08T01:33:13.319Z,97581.16
2019-03-08T01:35:43.916Z,97588.22
2019-03-08T01:38:14.501Z,97581.45
2019-03-08T01:40:45.711Z,97589.59
2019-03-08T01:43:16.278Z,97595.29
2019-03-08T01:45:46.740Z,97606.91
2019-03-08T01:48:17.129Z,97602.05
2019-03-08T01:50:48.979Z,97602.05
2019-03-08T01:53:19.426Z,97601.43
2019-03-08T01:55:50.521Z,97604.67
2019-03-08T01:58:20.907Z,97609.84
2019-03-08T02:00:51.761Z,97601.96
2019-03-08T02:03:22.293Z,97601.65
2019-03-08T02:05:52.998Z,97601.13
2019-03-08T02:08:23.594Z,97594.39
2019-03-08T02:10:54.079Z,97595.20
2019-03-08T02:13:27.271Z,97592.52
2019-03-08T02:15:58.189Z,97586.90
2019-03-08T02:18:28.649Z,97580.65
2019-03-08T02:21:06.456Z,97587.72
2019-03-08T02:23:31.346Z,97598.56
2019-03-08T02:26:01.728Z,97597.23
2019-03-08T02:28:32.402Z,97593.70
2019-03-08T02:31:03.083Z,97581.80
2019-03-08T02:33:34.473Z,97583.39
2019-03-08T02:36:05.876Z,97589.09
2019-03-08T02:38:36.390Z,97584.17
2019-03-08T02:41:07.019Z,97589.81
2019-03-08T02:43:37.518Z,97572.24
2019-03-08T02:46:08.164Z,97581.98
2019-03-08T02:48:38.696Z,97585.75
2019-03-08T02:51:09.163Z,97587.69
2019-03-08T02:53:39.641Z,97587.19
2019-03-08T02:56:10.477Z,97590.90
2019-03-08T02:58:41.009Z,97594.67
2019-03-08T03:01:13.302Z,97599.03
2019-03-08T03:03:43.786Z,97605.17
2019-03-08T03:06:14.290Z,97601.94
2019-03-08T03:08:45.393Z,97605.20
2019-03-08T03:11:15.879Z,97605.20
2019-03-08T03:13:46.392Z,97605.16
2019-03-08T03:16:17.101Z,97604.92
2019-03-08T03:18:47.590Z,97608.70
2019-03-08T03:21:18.258Z,97613.56
2019-03-08T03:23:48.943Z,97603.58
2019-03-08T03:26:19.679Z,97607.69
2019-03-08T03:28:50.604Z,97603.02
2019-03-08T03:31:20.977Z,97606.64
2019-03-08T03:33:51.539Z,97599.59
2019-03-08T03:36:22.185Z,97603.42
2019-03-08T03:38:52.694Z,97601.56
2019-03-08T03:41:23.724Z,97609.42
2019-03-08T03:43:54.218Z,97613.52
2019-03-08T03:46:24.790Z,97613.81
2019-03-08T03:48:56.710Z,97613.28
2019-03-08T03:51:27.749Z,97611.11
2019-03-08T03:53:58.533Z,97613.59
2019-03-08T03:56:30.557Z,97605.70
2019-03-08T03:59:01.182Z,97609.39
2019-03-08T04:01:38.511Z,97611.23
2019-03-08T04:04:08.959Z,97613.89
2019-03-08T04:06:39.513Z,97609.77
2019-03-08T04:09:13.676Z,97613.05
2019-03-08T04:11:44.260Z,97613.61
2019-03-08T04:14:14.869Z,97613.33
2019-03-08T04:16:45.582Z,97613.84
2019-03-08T04:19:17.221Z,97629.72
2019-03-08T04:21:47.696Z,97625.64
2019-03-08T04:24:18.738Z,97622.57
2019-03-08T04:26:49.586Z,97624.99
2019-03-08T04:29:20.050Z,97624.13
2019-03-08T04:31:50.719Z,97627.61
2019-03-08T04:34:21.267Z,97624.36
2019-03-08T04:36:51.825Z,97623.48
2019-03-08T04:39:22.460Z,97625.37
2019-03-08T04:41:53.048Z,97619.16
2019-03-08T04:44:23.868Z,97621.34
2019-03-08T04:46:54.700Z,97617.81
2019-03-08T04:49:26.236Z,97618.38
2019-03-08T04:51:57.849Z,97617.55
2019-03-08T04:54:28.341Z,97610.27
2019-03-08T04:56:59.195Z,97608.64
2019-03-08T04:59:29.821Z,97612.67
2019-03-08T05:02:01.609Z,97614.05
2019-03-08T05:04:32.298Z,97611.34
2019-03-08T05:07:02.794Z,97615.40
2019-03-08T05:09:33.572Z,97612.72
2019-03-08T05:12:04.235Z,97608.66
2019-03-08T05:14:35.057Z,97609.20
2019-03-08T05:17:06.145Z,97611.18
2019-03-08T05:19:36.847Z,97612.23
2019-03-08T05:22:07.235Z,97618.52
2019-03-08T05:24:37.860Z,97619.82
2019-03-08T05:27:09.229Z,97622.86
2019-03-08T05:29:42.340Z,97619.66
2019-03-08T05:32:14.564Z,97619.97
2019-03-08T05:34:45.007Z,97620.54
2019-03-08T05:37:15.847Z,97609.17
2019-03-08T05:39:46.248Z,97612.45
2019-03-08T05:42:16.846Z,97612.95
2019-03-08T05:44:47.608Z,97613.03
2019-03-08T05:47:18.262Z,97609.78
2019-03-08T05:49:48.954Z,97612.19
2019-03-08T05:52:19.662Z,97614.09
2019-03-08T05:54:50.356Z,97613.56
2019-03-08T05:57:21.699Z,97618.68
2019-03-08T05:59:54.489Z,97616.00
2019-03-08T06:02:24.988Z,97622.23
2019-03-08T06:04:55.554Z,97622.25
2019-03-08T06:07:26.286Z,97606.27
2019-03-08T06:09:56.895Z,97609.84
2019-03-08T06:12:27.641Z,97608.22
2019-03-08T06:14:59.205Z,97600.65
2019-03-08T06:17:29.576Z,97608.53
2019-03-08T06:20:00.248Z,97615.31
2019-03-08T06:22:31.085Z,97613.98
2019-03-08T06:25:01.528Z,97612.42
2019-03-08T06:27:32.234Z,97599.44
2019-03-08T06:30:02.970Z,97609.75
2019-03-08T06:32:33.738Z,97616.28
2019-03-08T06:35:05.942Z,97616.02
2019-03-08T06:37:37.156Z,97636.65
2019-03-08T06:40:07.730Z,97630.17
2019-03-08T06:42:38.295Z,97637.51
2019-03-08T06:45:10.288Z,97641.28
2019-03-08T06:47:40.690Z,97648.89
2019-03-08T06:50:11.975Z,97633.48
2019-03-08T06:52:42.358Z,97631.08
2019-03-08T06:55:13.059Z,97637.63
2019-03-08T06:57:43.568Z,97640.59
2019-03-08T07:00:41.349Z,97643.06
2019-03-08T07:03:11.977Z,97647.69
2019-03-08T07:05:42.676Z,97648.52
2019-03-08T07:08:13.698Z,97657.56
2019-03-08T07:10:44.382Z,97658.17
2019-03-08T07:13:14.910Z,97653.26
2019-03-08T07:15:45.261Z,97628.58
2019-03-08T07:18:16.141Z,97648.91
2019-03-08T07:21:00.512Z,97640.53
2019-03-08T07:23:43.993Z,97640.34
2019-03-08T07:26:42.492Z,97642.25
2019-03-08T07:29:30.742Z,97652.34
2019-03-08T07:32:09.295Z,97656.95
2019-03-08T07:34:59.160Z,97642.08
2019-03-08T07:37:40.296Z,97654.84
2019-03-08T07:40:47.667Z,97654.28
2019-03-08T07:43:51.911Z,97654.35
2019-03-08T07:46:59.767Z,97659.77
2019-03-08T07:49:39.554Z,97652.47
2019-03-08T07:52:19.531Z,97657.09
2019-03-08T07:54:56.049Z,97662.53
2019-03-08T07:57:37.281Z,97642.20
2019-03-08T08:00:17.262Z,97661.45
2019-03-08T08:03:06.873Z,97669.90
2019-03-08T08:05:47.178Z,97660.70
2019-03-08T08:08:51.677Z,97675.88
2019-03-08T08:11:31.540Z,97667.52
2019-03-08T08:14:19.243Z,97673.48
2019-03-08T08:17:17.435Z,97681.63
2019-03-08T08:20:05.399Z,97681.38
2019-03-08T08:22:57.459Z,97682.52
2019-03-08T08:25:56.553Z,97686.31
2019-03-08T08:28:35.760Z,97683.87
2019-03-08T08:31:31.386Z,97685.53
2019-03-08T08:34:29.507Z,97682.55
2019-03-08T08:37:12.923Z,97672.48
2019-03-08T08:40:02.649Z,97686.83
2019-03-08T08:42:58.487Z,97695.26
2019-03-08T08:45:50.593Z,97688.26
2019-03-08T08:48:45.958Z,97680.97
2019-03-08T08:51:24.478Z,97686.17
2019-03-08T08:54:08.797Z,97675.94
2019-03-08T08:56:58.163Z,97663.44
2019-03-08T08:59:57.089Z,97672.65
2019-03-08T09:02:49.445Z,97677.83
2019-03-08T09:05:50.846Z,97670.47
2019-03-08T09:08:49.738Z,97658.83
2019-03-08T09:11:24.687Z,97662.36
2019-03-08T09:14:26.658Z,97650.99
2019-03-08T09:17:25.441Z,97651.56
2019-03-08T09:20:14.820Z,97657.27
2019-03-08T09:22:58.264Z,97648.02
2019-03-08T09:26:03.009Z,97654.27
2019-03-08T09:28:52.480Z,97655.08
2019-03-08T09:31:40.664Z,97662.69
2019-03-08T09:34:29.217Z,97652.91
2019-03-08T09:37:34.115Z,97646.13
2019-03-08T09:40:24.031Z,97650.20
2019-03-08T09:43:28.448Z,97659.69
2019-03-08T09:46:26.606Z,97671.66
2019-03-08T09:49:25.279Z,97663.50
2019-03-08T09:52:21.254Z,97670.27
2019-03-08T09:55:11.174Z,97664.30
2019-03-08T09:57:55.839Z,97666.47
2019-03-08T10:00:47.905Z,97658.33
2019-03-08T10:03:41.648Z,97659.97
2019-03-08T10:06:27.860Z,97659.38
2019-03-08T10:09:16.298Z,97665.39
2019-03-08T10:12:13.010Z,97672.95
2019-03-08T10:15:01.698Z,97683.82
2019-03-08T10:17:52.411Z,97675.95
2019-03-08T10:20:42.132Z,97674.84
2019-03-08T10:23:34.527Z,97688.72
2019-03-08T10:26:23.485Z,97694.44
2019-03-08T10:29:16.116Z,97700.95
2019-03-08T10:32:20.758Z,97696.05
2019-03-08T10:35:23.302Z,97684.38
2019-03-08T10:37:59.971Z,97689.54
2019-03-08T10:40:49.274Z,97691.73
2019-03-08T10:43:44.514Z,97689.81
2019-03-08T10:46:32.806Z,97689.52
2019-03-08T10:49:17.850Z,97688.12
2019-03-08T10:52:04.033Z,97683.75
2019-03-08T10:54:54.122Z,97652.72
2019-03-08T10:57:48.600Z,97652.72
2019-03-08T11:00:35.035Z,97653.73
2019-03-08T11:03:40.228Z,97663.44
2019-03-08T11:06:26.090Z,97648.46
2019-03-08T11:09:21.403Z,97648.20
2019-03-08T11:12:13.749Z,97658.77
2019-03-08T11:15:02.986Z,97646.70
2019-03-08T11:17:50.946Z,97651.00
2019-03-08T11:20:39.115Z,97655.97
2019-03-08T11:23:18.237Z,97654.36
2019-03-08T11:26:10.636Z,97661.41
2019-03-08T11:28:52.194Z,97659.35
2019-03-08T11:31:35.051Z,97660.28
2019-03-08T11:34:30.821Z,97669.03
2019-03-08T11:37:20.688Z,97601.61
2019-03-08T11:40:13.197Z,97681.44
2019-03-08T11:42:50.834Z,97676.86
2019-03-08T11:45:49.608Z,97676.86
2019-03-08T11:48:30.048Z,97661.85
2019-03-08T11:51:22.374Z,97688.27
2019-03-08T11:54:09.934Z,97700.77
2019-03-08T11:57:02.490Z,97709.50
2019-03-08T11:59:49.929Z,97702.67
2019-03-08T12:02:41.299Z,97666.14
2019-03-08T12:05:30.789Z,97659.31
2019-03-08T12:08:11.588Z,97659.31
2019-03-08T12:11:08.963Z,97657.41
2019-03-08T12:13:51.525Z,97677.41
2019-03-08T12:16:40.318Z,97688.55
2019-03-08T12:19:29.977Z,97701.69
2019-03-08T12:22:35.229Z,97670.37
2019-03-08T12:25:25.703Z,97672.61
2019-03-08T12:28:14.244Z,97649.95
2019-03-08T12:31:04.082Z,97713.20
2019-03-08T12:33:52.416Z,97675.82
2019-03-08T12:36:39.917Z,97659.09
2019-03-08T12:39:23.539Z,97673.10
2019-03-08T12:42:09.127Z,97683.25
2019-03-08T12:44:49.602Z,97697.03
2019-03-08T12:47:37.984Z,97656.95
2019-03-08T12:50:20.384Z,97646.38
2019-03-08T12:53:09.717Z,97687.34
2019-03-08T12:56:17.663Z,97677.09
2019-03-08T12:59:05.848Z,97680.20
2019-03-08T13:02:12.125Z,97709.27
2019-03-08T13:05:10.700Z,97703.94
2019-03-08T13:07:50.659Z,97669.45
2019-03-08T13:10:21.149Z,97679.91
2019-03-08T13:12:51.664Z,97697.57
2019-03-08T13:15:22.402Z,97717.43
2019-03-08T13:17:52.941Z,97677.80
2019-03-08T13:20:23.441Z,97692.37
2019-03-08T13:22:53.795Z,97751.13
2019-03-08T13:25:24.365Z,97723.56
2019-03-08T13:27:54.845Z,97703.55
2019-03-08T13:30:25.886Z,97715.47
2019-03-08T13:32:56.482Z,97764.80
2019-03-08T13:35:27.153Z,97765.65
2019-03-08T13:37:58.364Z,97721.92
2019-03-08T13:40:29.197Z,97727.88
2019-03-08T13:42:59.687Z,97758.84
2019-03-08T13:45:30.215Z,97766.11
2019-03-08T13:48:01.102Z,97764.78
2019-03-08T13:50:32.011Z,97805.52
2019-03-08T13:53:03.080Z,97805.52
2019-03-08T13:55:34.456Z,97773.80
2019-03-08T13:58:06.113Z,97749.28
2019-03-08T14:00:36.946Z,97773.47
2019-03-08T14:03:07.665Z,97747.39
2019-03-08T14:05:39.504Z,97746.89
2019-03-08T14:08:10.863Z,97754.34
2019-03-08T14:10:41.453Z,97756.22
2019-03-08T14:13:12.260Z,97760.25
2019-03-08T14:15:42.655Z,97754.45
2019-03-08T14:18:13.433Z,97749.81
2019-03-08T14:20:44.171Z,97749.81
2019-03-08T14:23:14.937Z,97747.30
2019-03-08T14:25:46.770Z,97756.11
2019-03-08T14:28:17.436Z,97767.66
2019-03-08T14:30:58.072Z,97733.70
2019-03-08T14:33:28.633Z,97717.97
2019-03-08T14:35:59.240Z,97774.16
2019-03-08T14:38:37.194Z,97779.53
2019-03-08T14:41:30.746Z,97769.84
2019-03-08T14:44:31.334Z,97783.34
2019-03-08T14:47:19.066Z,97770.73
2019-03-08T14:49:50.384Z,97770.77
2019-03-08T14:52:21.754Z,97783.91
2019-03-08T14:54:53.043Z,97783.83
2019-03-08T14:57:27.249Z,97765.77
2019-03-08T14:59:56.311Z,97801.75
2019-03-08T15:02:26.762Z,97792.14
2019-03-08T15:04:57.519Z,97792.14
2019-03-08T15:07:29.885Z,97800.03
2019-03-08T15:10:02.401Z,97793.27
2019-03-08T15:12:33.059Z,97827.69
2019-03-08T15:15:07.366Z,97818.70
2019-03-08T15:17:39.037Z,97787.34
2019-03-08T15:20:15.205Z,97781.88
2019-03-08T15:22:43.655Z,97812.94
2019-03-08T15:25:14.838Z,97789.44
2019-03-08T15:27:45.733Z,97804.05
2019-03-08T15:30:17.230Z,97784.09
2019-03-08T15:32:48.006Z,97792.53
2019-03-08T15:35:18.843Z,97797.02
2019-03-08T15:37:50.146Z,97802.82
2019-03-08T15:40:21.114Z,97766.07
2019-03-08T15:42:51.811Z,97802.00
2019-03-08T15:45:22.167Z,97810.73
2019-03-08T15:47:52.536Z,97814.88
2019-03-08T15:50:23.109Z,97805.39
2019-03-08T15:52:53.550Z,97804.02
2019-03-08T15:55:24.930Z,97814.65
2019-03-08T15:57:55.291Z,97813.57
2019-03-08T16:00:25.628Z,97810.02
2019-03-08T16:02:56.298Z,97818.98
2019-03-08T16:05:28.406Z,97832.03
2019-03-08T16:08:01.915Z,97840.20
2019-03-08T16:10:33.091Z,97827.39
2019-03-08T16:13:03.889Z,97840.16
2019-03-08T16:15:36.022Z,97855.09
2019-03-08T16:18:06.908Z,97893.01
2019-03-08T16:20:38.523Z,97862.52
2019-03-08T16:23:11.426Z,97858.93
2019-03-08T16:25:47.671Z,97869.70
2019-03-08T16:28:14.702Z,97856.38
2019-03-08T16:30:47.610Z,97869.10
2019-03-08T16:33:25.541Z,97879.83
2019-03-08T16:36:34.693Z,97881.36
2019-03-08T16:39:34.666Z,97902.45
2019-03-08T16:42:23.487Z,97887.46
2019-03-08T16:45:22.377Z,97894.48
2019-03-08T16:48:07.737Z,97880.89
2019-03-08T16:51:05.906Z,97878.16
2019-03-08T16:54:00.974Z,97883.29
2019-03-08T16:57:00.809Z,97893.42
2019-03-08T16:59:48.959Z,97899.41
2019-03-08T17:02:47.487Z,97875.61
2019-03-08T17:05:39.985Z,97910.03
2019-03-08T17:08:30.110Z,97927.63
2019-03-08T17:11:16.734Z,97907.48
2019-03-08T17:14:21.323Z,97895.25
2019-03-08T17:17:03.942Z,97900.88
2019-03-08T17:19:40.859Z,97903.25
2019-03-08T17:22:29.479Z,97905.67
2019-03-08T17:25:11.604Z,97912.68
2019-03-08T17:27:51.915Z,97907.23
2019-03-08T17:30:33.975Z,97912.37
2019-03-08T17:33:32.198Z,97928.61
2019-03-08T17:36:21.368Z,97926.16
2019-03-08T17:39:03.195Z,97928.31
2019-03-08T17:41:48.075Z,97937.23
2019-03-08T17:44:36.212Z,97951.55
2019-03-08T17:47:16.109Z,97965.58
2019-03-08T17:50:11.648Z,97955.16
2019-03-08T17:53:05.244Z,97960.88
2019-03-08T17:56:01.398Z,97965.77
2019-03-08T17:58:50.673Z,97951.88
2019-03-08T18:01:42.988Z,97968.13
2019-03-08T18:04:37.505Z,97964.83
2019-03-08T18:07:35.996Z,97958.59
2019-03-08T18:10:27.970Z,97973.70
2019-03-08T18:13:16.285Z,97977.73
2019-03-08T18:16:23.576Z,97982.77
2019-03-08T18:19:13.073Z,97978.91
2019-03-08T18:22:02.458Z,97981.53
2019-03-08T18:24:54.740Z,97990.95
2019-03-08T18:27:44.134Z,97974.58
2019-03-08T18:30:45.743Z,98002.97
2019-03-08T18:33:24.020Z,97992.90
2019-03-08T18:36:25.589Z,98000.16
2019-03-08T18:39:15.048Z,98005.25
2019-03-08T18:42:03.086Z,98001.68
2019-03-08T18:44:58.560Z,98006.50
2019-03-08T18:47:58.257Z,98014.05
2019-03-08T18:50:50.787Z,98017.94
2019-03-08T18:53:55.742Z,98017.94
2019-03-08T18:56:47.840Z,98020.01
2019-03-08T18:59:46.458Z,98029.44
2019-03-08T19:02:39.068Z,98039.09
2019-03-08T19:05:19.227Z,98039.59
2019-03-08T19:08:09.045Z,98046.53
2019-03-08T19:11:10.953Z,98042.66
2019-03-08T19:14:11.239Z,98046.41
2019-03-08T19:17:12.842Z,98058.20
2019-03-08T19:19:59.551Z,98058.47
2019-03-08T19:22:48.334Z,98062.97
2019-03-08T19:25:31.709Z,98061.62
2019-03-08T19:28:24.025Z,98063.94
2019-03-08T19:31:13.459Z,98073.41
2019-03-08T19:34:00.268Z,98086.13
2019-03-08T19:36:52.585Z,98078.77
2019-03-08T19:39:40.610Z,98089.15
2019-03-08T19:42:36.301Z,98092.25
2019-03-08T19:45:26.327Z,98089.31
2019-03-08T19:48:06.290Z,98103.27
2019-03-08T19:50:55.624Z,98096.64
2019-03-08T19:53:42.969Z,98097.26
2019-03-08T19:56:30.385Z,98087.05
2019-03-08T19:59:08.803Z,98101.47
2019-03-08T20:01:52.511Z,98092.77
2019-03-08T20:04:43.048Z,98104.34
2019-03-08T20:07:38.450Z,98102.90
2019-03-08T20:10:26.979Z,98106.16
2019-03-08T20:13:10.187Z,98102.64
2019-03-08T20:16:02.530Z,98106.34
2019-03-08T20:18:50.592Z,98118.80
2019-03-08T20:21:55.150Z,98122.38
2019-03-08T20:24:50.947Z,98113.23
2019-03-08T20:27:58.419Z,98131.84
2019-03-08T20:30:56.746Z,98107.88
2019-03-08T20:33:58.051Z,98129.61
2019-03-08T20:36:46.298Z,98143.14
2019-03-08T20:39:24.545Z,98144.80
2019-03-08T20:42:09.089Z,98138.52
2019-03-08T20:44:57.301Z,98145.10
2019-03-08T20:47:30.245Z,98144.96
2019-03-08T20:50:00.811Z,98154.77
2019-03-08T20:52:32.477Z,98162.98
2019-03-08T20:55:02.910Z,98154.44
2019-03-08T20:57:33.477Z,98158.28
2019-03-08T21:00:04.089Z,98164.64
2019-03-08T21:02:35.146Z,98161.69
2019-03-08T21:05:06.717Z,98172.05
2019-03-08T21:07:37.155Z,98172.41
2019-03-08T21:10:08.324Z,98184.09
2019-03-08T21:12:38.789Z,98179.22
2019-03-08T21:15:11.908Z,98177.04
2019-03-08T21:17:42.318Z,98190.90
2019-03-08T21:20:13.417Z,98197.15
2019-03-08T21:22:44.012Z,98189.50
2019-03-08T21:25:15.592Z,98194.72
2019-03-08T21:27:47.254Z,98200.52
2019-03-08T21:30:18.333Z,98205.86
2019-03-08T21:32:49.109Z,98203.99
2019-03-08T21:35:20.364Z,98203.63
2019-03-08T21:37:50.999Z,98208.02
2019-03-08T21:40:21.887Z,98217.30
2019-03-08T21:42:52.907Z,98215.89
2019-03-08T21:45:24.953Z,98223.80
2019-03-08T21:47:56.738Z,98233.84
2019-03-08T21:50:27.213Z,98243.33
2019-03-08T21:52:58.030Z,98233.89
2019-03-08T21:55:28.903Z,98237.25
2019-03-08T21:57:59.939Z,98237.77
2019-03-08T22:00:31.885Z,98238.91
2019-03-08T22:03:02.994Z,98247.06
2019-03-08T22:05:35.923Z,98247.59
2019-03-08T22:08:06.671Z,98260.55
2019-03-08T22:10:54.664Z,98248.34
2019-03-08T22:13:25.827Z,98253.28
2019-03-08T22:15:56.917Z,98262.55
2019-03-08T22:18:27.457Z,98256.43
2019-03-08T22:20:58.433Z,98262.41
2019-03-08T22:23:31.302Z,98268.63
2019-03-08T22:26:02.168Z,98274.55
2019-03-08T22:28:32.752Z,98281.73
2019-03-08T22:31:03.389Z,98278.41
2019-03-08T22:33:33.840Z,98277.22
2019-03-08T22:36:04.350Z,98291.23
2019-03-08T22:38:37.509Z,98287.25
2019-03-08T22:41:07.963Z,98290.25
2019-03-08T22:43:38.631Z,98296.75
2019-03-08T22:46:09.129Z,98295.98
2019-03-08T22:48:41.676Z,98305.44
2019-03-08T22:51:11.940Z,98314.54
2019-03-08T22:53:45.026Z,98320.45
2019-03-08T22:56:17.923Z,98323.67
2019-03-08T22:58:50.053Z,98322.98
2019-03-08T23:01:25.347Z,98325.41
2019-03-08T23:04:00.354Z,98332.16
2019-03-08T23:06:34.176Z,98337.77
2019-03-08T23:09:10.426Z,98339.73
2019-03-08T23:11:41.626Z,98331.72
2019-03-08T23:14:14.360Z,98335.77
2019-03-08T23:16:45.618Z,98332.27
2019-03-08T23:19:17.333Z,98346.72
2019-03-08T23:21:49.823Z,98342.13
2019-03-08T23:24:21.969Z,98358.30
2019-03-08T23:27:11.159Z,98345.65
2019-03-08T23:29:55.225Z,98351.73
2019-03-08T23:32:32.062Z,98349.41
2019-03-08T23:35:03.357Z,98356.81
2019-03-08T23:37:35.425Z,98362.45
2019-03-08T23:40:06.974Z,98351.48
2019-03-08T23:42:38.735Z,98362.75
2019-03-08T23:45:11.214Z,98355.39
2019-03-08T23:47:42.719Z,98354.35
2019-03-08T23:50:14.287Z,98355.25
2019-03-08T23:52:45.937Z,98354.35
2019-03-08T23:55:18.025Z,98354.70
2019-03-08T23:57:49.574Z,98359.44
